Time;durP1;ratioP1;P1;durP2;ratioP2;P2;SDS_P1;SDS_P2;PMS_P1;PMS_P2;Temp;Humidity;BMP_temperature;BMP_pressure;BME280_temperature;BME280_humidity;BME280_pressure;Samples;Min_cycle;Max_cycle;Signal;HPM_P1;HPM_P2
2023/04/16 00:04:30;;;;;;;15.17;13.57;;;9.40;99.90;;;;;;12793242;23;21014;-88
2023/04/16 00:09:32;;;;;;;18.30;13.50;;;9.40;99.90;;;;;;12792571;23;20199;-88
2023/04/16 00:14:35;;;;;;;19.50;14.23;;;9.40;99.90;;;;;;12792627;23;20250;-88
2023/04/16 00:19:38;;;;;;;18.30;14.10;;;9.40;99.90;;;;;;12792534;23;20570;-88
2023/04/16 00:24:41;;;;;;;16.37;13.50;;;9.50;99.90;;;;;;12792317;23;20218;-88
2023/04/16 00:29:43;;;;;;;14.97;12.20;;;9.50;99.90;;;;;;12792541;23;20183;-88
2023/04/16 00:34:45;;;;;;;19.87;13.50;;;9.60;99.90;;;;;;12792867;23;20239;-88
2023/04/16 00:39:49;;;;;;;20.17;14.97;;;9.60;99.90;;;;;;12791208;23;20799;-88
2023/04/16 00:44:51;;;;;;;18.57;14.40;;;9.50;99.90;;;;;;12792688;23;20168;-88
2023/04/16 00:49:54;;;;;;;23.47;15.73;;;9.50;99.90;;;;;;12765600;23;20234;-88
2023/04/16 00:54:58;;;;;;;32.00;20.40;;;9.60;99.90;;;;;;12790873;23;20235;-88
2023/04/16 01:00:01;;;;;;;32.80;22.37;;;9.70;99.90;;;;;;12791670;23;20254;-88
2023/04/16 01:05:04;;;;;;;36.27;25.37;;;9.70;99.90;;;;;;12792490;23;20198;-88
2023/04/16 01:10:07;;;;;;;24.97;16.07;;;9.70;99.90;;;;;;12766252;23;20172;-88
2023/04/16 01:15:10;;;;;;;25.73;18.40;;;9.80;99.90;;;;;;12792059;23;20258;-88
2023/04/16 01:20:13;;;;;;;32.97;21.17;;;10.00;99.90;;;;;;12792014;23;20195;-88
2023/04/16 01:25:16;;;;;;;27.23;18.33;;;10.00;99.90;;;;;;12791447;23;20247;-88
2023/04/16 01:30:19;;;;;;;23.73;16.70;;;10.00;99.90;;;;;;12791978;23;20267;-88
2023/04/16 01:35:42;;;;;;;22.70;16.73;;;10.00;99.90;;;;;;12764202;23;20207;-88
2023/04/16 01:40:45;;;;;;;25.13;16.40;;;10.00;99.90;;;;;;12764253;23;20256;-88
2023/04/16 01:45:47;;;;;;;23.23;16.37;;;9.90;99.90;;;;;;12764330;23;20180;-88
2023/04/16 01:50:50;;;;;;;28.07;19.93;;;10.00;99.90;;;;;;12764863;23;20242;-88
2023/04/16 01:55:52;;;;;;;26.67;19.10;;;10.00;99.90;;;;;;12790916;23;20582;-89
2023/04/16 02:00:55;;;;;;;25.33;17.50;;;10.00;99.90;;;;;;12764334;23;20255;-88
2023/04/16 02:05:58;;;;;;;29.23;17.73;;;10.00;99.90;;;;;;12763188;23;20179;-88
2023/04/16 02:11:03;;;;;;;22.40;15.53;;;10.00;99.90;;;;;;12764136;23;20184;-88
2023/04/16 02:16:06;;;;;;;20.83;15.10;;;10.00;99.90;;;;;;12791024;23;20187;-89
2023/04/16 02:21:23;;;;;;;18.73;14.47;;;9.80;99.90;;;;;;12763944;23;20180;-88
2023/04/16 02:26:25;;;;;;;23.53;16.50;;;9.80;99.90;;;;;;12764051;23;20523;-89
2023/04/16 02:31:32;;;;;;;26.73;15.37;;;9.80;99.90;;;;;;12763958;23;20179;-88
2023/04/16 02:36:34;;;;;;;21.13;15.13;;;9.80;99.90;;;;;;12809185;23;20850;-88
2023/04/16 02:41:37;;;;;;;19.63;14.13;;;9.70;99.90;;;;;;12763566;23;20176;-88
2023/04/16 02:46:40;;;;;;;24.37;15.83;;;9.60;99.90;;;;;;12791396;23;20534;-88
2023/04/16 02:51:43;;;;;;;20.07;14.60;;;9.60;99.90;;;;;;12764223;23;20214;-88
2023/04/16 02:56:45;;;;;;;24.87;15.70;;;9.60;99.90;;;;;;12764159;23;20199;-88
2023/04/16 03:01:48;;;;;;;21.37;13.43;;;9.60;99.90;;;;;;12790884;23;20246;-88
2023/04/16 03:06:50;;;;;;;19.60;14.80;;;9.60;99.90;;;;;;12766415;23;20188;-88
2023/04/16 03:11:53;;;;;;;20.60;14.90;;;9.50;99.90;;;;;;12767106;23;20210;-88
2023/04/16 03:16:56;;;;;;;26.60;16.03;;;9.50;99.90;;;;;;12794581;23;20500;-88
2023/04/16 03:21:59;;;;;;;21.10;14.63;;;9.50;99.90;;;;;;12794986;23;20164;-88
2023/04/16 03:27:01;;;;;;;23.40;15.37;;;9.60;99.90;;;;;;12767063;23;20651;-88
2023/04/16 03:32:04;;;;;;;25.17;18.27;;;9.60;99.90;;;;;;12794560;23;20191;-88
2023/04/16 03:37:10;;;;;;;25.87;17.80;;;9.70;99.90;;;;;;12767997;23;20252;-88
2023/04/16 03:42:13;;;;;;;24.93;19.23;;;9.80;99.90;;;;;;12767702;23;20179;-89
2023/04/16 03:47:16;;;;;;;23.77;18.43;;;10.00;99.90;;;;;;12766537;23;20650;-88
2023/04/16 03:52:20;;;;;;;28.33;20.97;;;10.10;99.90;;;;;;12767223;23;20207;-88
2023/04/16 03:57:23;;;;;;;24.37;18.73;;;10.00;99.90;;;;;;12793682;23;20188;-88
2023/04/16 04:02:27;;;;;;;25.97;18.90;;;9.90;99.90;;;;;;12765671;23;20262;-88
2023/04/16 04:07:30;;;;;;;24.57;18.33;;;9.90;99.90;;;;;;12766269;23;20207;-88
2023/04/16 04:12:33;;;;;;;30.10;21.50;;;10.00;99.90;;;;;;12765746;23;20207;-88
2023/04/16 04:17:35;;;;;;;24.77;19.13;;;9.90;99.90;;;;;;12766451;23;20269;-87
2023/04/16 04:22:38;;;;;;;27.17;19.47;;;10.10;99.90;;;;;;12765828;23;20234;-88
2023/04/16 04:27:41;;;;;;;21.77;16.97;;;10.00;99.90;;;;;;12790747;23;20183;-88
2023/04/16 04:32:43;;;;;;;25.50;19.27;;;10.00;99.90;;;;;;12793006;23;20222;-88
2023/04/16 04:37:46;;;;;;;27.57;16.83;;;10.10;99.90;;;;;;12790770;23;20265;-88
2023/04/16 04:42:53;;;;;;;17.67;13.47;;;10.10;99.90;;;;;;12765281;23;20214;-88
2023/04/16 04:47:57;;;;;;;20.60;15.20;;;10.20;99.90;;;;;;12764829;23;20184;-89
2023/04/16 04:53:00;;;;;;;23.17;17.33;;;10.30;99.90;;;;;;12791832;23;20485;-88
2023/04/16 04:58:04;;;;;;;20.53;16.07;;;10.10;99.90;;;;;;12765306;23;20226;-88
2023/04/16 05:03:10;;;;;;;20.70;14.60;;;10.00;99.90;;;;;;12766161;23;20230;-88
2023/04/16 05:08:12;;;;;;;11.27;9.67;;;10.20;99.90;;;;;;12790796;23;20523;-88
2023/04/16 05:13:15;;;;;;;14.23;12.47;;;10.30;99.90;;;;;;12791118;23;20525;-88
2023/04/16 05:18:17;;;;;;;15.43;11.40;;;10.10;99.90;;;;;;12792751;23;20234;-88
2023/04/16 05:23:20;;;;;;;13.87;12.17;;;10.10;99.90;;;;;;12809320;23;20904;-88
2023/04/16 05:28:22;;;;;;;20.50;16.23;;;10.30;99.90;;;;;;12792233;23;20222;-88
2023/04/16 05:33:25;;;;;;;20.07;15.57;;;10.40;99.90;;;;;;12790870;23;20238;-88
2023/04/16 05:38:27;;;;;;;17.40;14.17;;;10.40;99.90;;;;;;12790914;23;20200;-89
2023/04/16 05:43:30;;;;;;;14.93;12.57;;;10.30;99.90;;;;;;12790595;23;20168;-90
2023/04/16 05:48:33;;;;;;;20.83;15.17;;;10.50;99.90;;;;;;12791080;23;20218;-90
2023/04/16 05:53:35;;;;;;;8.77;7.87;;;10.70;99.90;;;;;;12810060;23;20172;-91
2023/04/16 05:58:38;;;;;;;20.40;15.53;;;10.90;99.90;;;;;;12791152;23;20207;-91
2023/04/16 06:03:40;;;;;;;22.23;16.57;;;11.00;99.90;;;;;;12766196;23;20168;-89
2023/04/16 06:08:43;;;;;;;21.10;17.60;;;11.10;99.90;;;;;;12791691;23;20569;-90
2023/04/16 06:13:45;;;;;;;20.30;16.60;;;11.00;99.90;;;;;;12790520;23;20184;-89
2023/04/16 06:18:48;;;;;;;20.70;15.93;;;10.90;99.90;;;;;;12790269;23;20204;-91
2023/04/16 06:23:50;;;;;;;23.63;18.80;;;10.90;99.90;;;;;;12791217;23;20673;-89
2023/04/16 06:28:53;;;;;;;13.33;10.70;;;10.70;99.90;;;;;;12791720;23;20230;-90
2023/04/16 06:33:56;;;;;;;15.80;12.13;;;11.00;99.90;;;;;;12765753;23;20179;-89
2023/04/16 06:38:58;;;;;;;18.63;14.80;;;11.20;99.90;;;;;;12810884;23;20183;-88
2023/04/16 06:44:01;;;;;;;27.40;18.87;;;11.40;99.90;;;;;;12795401;23;20195;-89
2023/04/16 06:49:04;;;;;;;22.57;16.70;;;11.00;99.90;;;;;;12768770;23;20183;-88
2023/04/16 06:54:06;;;;;;;17.23;12.97;;;11.00;99.90;;;;;;12795519;23;20222;-88
2023/04/16 06:59:09;;;;;;;24.60;17.60;;;11.20;99.90;;;;;;12793761;23;20203;-89
2023/04/16 07:04:12;;;;;;;20.33;16.57;;;11.20;99.90;;;;;;12794891;23;20217;-89
2023/04/16 07:09:16;;;;;;;14.20;9.37;;;11.10;99.90;;;;;;12795015;23;20183;-88
2023/04/16 07:14:19;;;;;;;20.57;13.87;;;11.50;99.90;;;;;;12813758;23;20227;-89
2023/04/16 07:19:21;;;;;;;21.17;14.90;;;11.70;99.90;;;;;;12768214;23;20261;-88
2023/04/16 07:24:24;;;;;;;19.70;15.87;;;11.70;99.90;;;;;;12795102;23;20176;-89
2023/04/16 07:29:27;;;;;;;18.93;14.13;;;11.50;99.90;;;;;;12793908;23;20180;-88
2023/04/16 07:34:29;;;;;;;21.27;16.27;;;11.50;99.90;;;;;;12768299;23;20172;-88
2023/04/16 07:39:32;;;;;;;21.57;17.07;;;11.30;99.90;;;;;;12794758;23;20195;-89
2023/04/16 07:44:34;;;;;;;21.70;16.33;;;11.40;99.90;;;;;;12768459;23;20168;-88
2023/04/16 07:49:37;;;;;;;19.87;15.63;;;11.50;99.90;;;;;;12794462;23;20172;-88
2023/04/16 07:54:40;;;;;;;20.40;15.43;;;11.50;99.90;;;;;;12793865;23;20172;-88
2023/04/16 07:59:42;;;;;;;21.10;16.60;;;11.60;99.90;;;;;;12766713;23;20262;-88
2023/04/16 08:04:45;;;;;;;25.93;18.33;;;11.80;99.90;;;;;;12768158;23;20184;-87
2023/04/16 08:09:52;;;;;;;25.97;18.83;;;12.10;99.90;;;;;;12793792;23;20689;-87
2023/04/16 08:14:54;;;;;;;23.17;18.33;;;12.20;99.90;;;;;;12793746;23;20187;-88
2023/04/16 08:19:57;;;;;;;24.43;18.87;;;11.90;99.90;;;;;;12793028;23;20628;-88
2023/04/16 08:24:59;;;;;;;22.40;15.30;;;12.20;99.90;;;;;;12793378;23;20167;-87
2023/04/16 08:30:02;;;;;;;28.20;20.07;;;12.50;99.90;;;;;;12792857;23;20177;-87
2023/04/16 08:35:05;;;;;;;23.33;14.63;;;12.70;99.90;;;;;;12766168;23;20646;-88
2023/04/16 08:40:08;;;;;;;21.07;14.87;;;13.00;99.90;;;;;;12809833;23;20172;-89
2023/04/16 08:45:16;;;;;;;13.80;11.67;;;13.30;99.90;;;;;;12766454;23;20180;-87
2023/04/16 08:50:25;;;;;;;16.70;12.57;;;13.40;99.90;;;;;;12791944;23;20627;-86
2023/04/16 08:55:46;;;;;;;16.30;12.63;;;13.70;99.90;;;;;;12766211;23;20200;-86
2023/04/16 09:00:49;;;;;;;9.27;7.10;;;14.00;99.90;;;;;;12774970;23;20196;-86
2023/04/16 09:05:54;;;;;;;8.77;6.60;;;14.20;99.90;;;;;;12766556;23;20207;-86
2023/04/16 09:10:57;;;;;;;15.43;10.43;;;14.30;99.90;;;;;;12792887;23;20207;-86
2023/04/16 09:15:59;;;;;;;14.07;10.80;;;14.40;99.90;;;;;;12792279;23;20191;-86
2023/04/16 09:21:03;;;;;;;8.93;8.03;;;14.20;99.90;;;;;;12766663;23;20167;-86
2023/04/16 09:26:06;;;;;;;10.73;7.37;;;14.30;99.90;;;;;;12790502;23;20188;-86
2023/04/16 09:31:17;;;;;;;13.07;9.93;;;14.30;99.90;;;;;;12790558;23;20183;-87
2023/04/16 09:36:22;;;;;;;14.00;11.43;;;14.40;99.90;;;;;;12792049;23;20242;-86
2023/04/16 09:41:27;;;;;;;13.37;8.80;;;14.50;99.90;;;;;;12791618;23;20518;-87
2023/04/16 09:46:32;;;;;;;17.13;11.70;;;14.60;99.90;;;;;;12791244;23;20172;-87
2023/04/16 09:51:41;;;;;;;8.67;7.13;;;14.80;99.90;;;;;;12809568;23;20177;-87
2023/04/16 09:56:45;;;;;;;12.00;10.63;;;14.70;99.90;;;;;;12789766;23;20200;-86
2023/04/16 10:01:48;;;;;;;13.60;10.30;;;15.20;99.90;;;;;;12763646;23;20204;-87
2023/04/16 10:07:05;;;;;;;10.97;9.30;;;15.20;99.90;;;;;;12763894;23;20184;-87
2023/04/16 10:12:08;;;;;;;5.93;4.87;;;15.20;99.90;;;;;;12789229;23;20183;-84
2023/04/16 10:17:11;;;;;;;10.60;8.60;;;15.30;99.90;;;;;;12763172;23;20228;-86
2023/04/16 10:22:15;;;;;;;10.47;8.93;;;15.40;99.90;;;;;;12791178;23;20168;-88
2023/04/16 10:27:19;;;;;;;10.20;9.10;;;15.20;99.90;;;;;;12790950;23;20175;-89
2023/04/16 10:32:27;;;;;;;10.43;8.57;;;15.20;99.90;;;;;;12791152;23;20167;-89
2023/04/16 10:37:30;;;;;;;11.13;8.97;;;15.40;99.90;;;;;;12790964;23;20196;-88
2023/04/16 10:42:33;;;;;;;12.50;8.57;;;15.60;99.90;;;;;;12764246;23;20215;-91
2023/04/16 10:47:39;;;;;;;9.63;8.20;;;15.80;99.90;;;;;;12764929;23;20553;-91
2023/04/16 10:52:42;;;;;;;11.37;8.43;;;16.20;99.90;;;;;;12790369;23;20650;-91
2023/04/16 10:57:48;;;;;;;11.43;8.37;;;16.10;99.90;;;;;;12790835;23;20234;-90
2023/04/16 11:02:53;;;;;;;12.17;9.13;;;16.40;99.90;;;;;;12789699;23;20200;-91
2023/04/16 11:08:13;;;;;;;9.07;8.03;;;;;;;;;;12764966;23;20630;-86
2023/04/16 11:13:16;;;;;;;9.57;8.00;;;16.60;99.90;;;;;;12765077;23;20191;-89
2023/04/16 11:18:19;;;;;;;8.43;6.97;;;16.20;97.00;;;;;;12765715;23;20199;-89
2023/04/16 11:23:21;;;;;;;9.80;8.17;;;16.20;99.90;;;;;;12795742;23;20164;-93
2023/04/16 11:28:34;;;;;;;9.53;8.63;;;16.10;97.30;;;;;;12799509;23;20188;-95
2023/04/16 11:33:38;;;;;;;10.13;8.77;;;15.40;98.60;;;;;;12800548;23;20180;-95
2023/04/16 11:38:41;;;;;;;10.90;8.87;;;15.10;99.90;;;;;;12776107;23;20199;-93
2023/04/16 11:43:44;;;;;;;10.40;9.30;;;14.60;99.90;;;;;;12801426;23;20180;-94
2023/04/16 11:48:52;;;;;;;11.43;9.37;;;14.30;99.90;;;;;;12804894;23;20199;-96
2023/04/16 11:53:55;;;;;;;13.13;10.20;;;13.80;99.90;;;;;;12830938;23;20218;-93
2023/04/16 11:59:12;;;;;;;7.37;6.67;;;13.40;99.90;;;;;;12795190;23;20258;-94
2023/04/16 12:04:17;;;;;;;7.90;6.77;;;12.70;99.90;;;;;;12770819;23;20181;-93
2023/04/16 12:09:24;;;;;;;9.07;8.17;;;12.30;99.90;;;;;;12796439;23;20505;-93
2023/04/16 12:14:28;;;;;;;9.80;8.30;;;;;;;;;;12745378;23;20638;-94
2023/04/16 12:19:30;;;;;;;8.10;7.20;;;11.30;99.90;;;;;;12772721;23;20195;-94
2023/04/16 12:24:35;;;;;;;8.10;7.03;;;10.90;99.90;;;;;;12798695;23;20169;-95
2023/04/16 12:29:38;;;;;;;10.50;7.00;;;10.60;99.90;;;;;;12797755;23;20491;-95
2023/04/16 12:34:50;;;;;;;8.57;6.77;;;10.60;99.90;;;;;;12797785;23;20234;-94
2023/04/16 12:39:53;;;;;;;7.23;5.37;;;10.50;99.90;;;;;;12798907;23;20255;-95
2023/04/16 12:44:55;;;;;;;6.43;5.27;;;10.40;99.90;;;;;;12796522;23;20522;-94
2023/04/16 12:49:58;;;;;;;5.40;4.47;;;10.40;99.90;;;;;;12804427;23;20172;-95
2023/04/16 12:55:01;;;;;;;3.50;3.20;;;10.30;99.90;;;;;;12805214;23;20189;-92
2023/04/16 13:00:07;;;;;;;4.30;3.33;;;10.40;99.90;;;;;;12797777;23;20205;-95
2023/04/16 13:05:10;;;;;;;9.23;5.40;;;10.70;99.90;;;;;;12797655;23;20165;-94
2023/04/16 13:10:12;;;;;;;5.60;4.40;;;11.00;99.90;;;;;;12770937;23;20184;-94
2023/04/16 13:15:15;;;;;;;4.17;3.77;;;11.30;99.90;;;;;;12796467;23;20624;-95
2023/04/16 13:20:17;;;;;;;4.37;3.57;;;11.60;99.90;;;;;;12793729;23;20203;-95
2023/04/16 13:25:20;;;;;;;3.10;2.67;;;12.00;99.90;;;;;;12770541;23;20175;-94
2023/04/16 13:30:22;;;;;;;2.83;2.63;;;12.30;99.90;;;;;;12794124;23;20183;-94
2023/04/16 13:35:26;;;;;;;2.97;2.67;;;12.60;99.90;;;;;;12793659;23;20222;-93
2023/04/16 13:40:28;;;;;;;2.60;2.40;;;12.80;99.90;;;;;;12809729;23;20195;-94
2023/04/16 13:45:31;;;;;;;4.43;4.00;;;13.00;99.90;;;;;;12766832;23;20230;-93
2023/04/16 13:50:34;;;;;;;4.93;4.40;;;13.10;99.90;;;;;;12793803;23;20183;-92
2023/04/16 13:55:38;;;;;;;5.40;4.03;;;13.10;99.90;;;;;;12767888;23;20188;-92
2023/04/16 14:00:44;;;;;;;5.57;5.00;;;13.20;99.90;;;;;;12795016;23;20234;-92
2023/04/16 14:05:47;;;;;;;6.23;5.33;;;13.40;99.90;;;;;;12811561;23;20168;-94
2023/04/16 14:10:49;;;;;;;4.77;4.20;;;13.40;99.90;;;;;;12769078;23;20187;-94
2023/04/16 14:15:55;;;;;;;4.07;3.67;;;13.60;99.90;;;;;;12794152;23;20180;-92
2023/04/16 14:21:00;;;;;;;4.67;4.20;;;13.40;99.90;;;;;;12789834;23;20191;-92
2023/04/16 14:26:03;;;;;;;8.63;5.57;;;13.40;99.90;;;;;;12764176;23;20183;-95
2023/04/16 14:31:05;;;;;;;8.43;7.53;;;13.40;99.90;;;;;;12798633;23;20171;-96
2023/04/16 14:36:08;;;;;;;8.73;7.40;;;13.30;99.90;;;;;;12766070;23;20219;-93
2023/04/16 14:41:12;;;;;;;6.23;5.63;;;13.20;99.90;;;;;;12790680;23;20729;-92
2023/04/16 14:46:18;;;;;;;7.03;6.20;;;13.00;99.90;;;;;;12792442;23;20167;-93
2023/04/16 14:51:20;;;;;;;7.83;6.87;;;13.00;99.90;;;;;;12806588;23;20223;-93
2023/04/16 14:56:23;;;;;;;7.77;7.00;;;12.90;99.90;;;;;;12790736;23;20199;-85
2023/04/16 15:01:26;;;;;;;13.10;10.17;;;13.00;99.90;;;;;;12789202;23;20204;-86
2023/04/16 15:06:29;;;;;;;8.00;6.60;;;13.00;99.90;;;;;;12764400;23;20757;-87
2023/04/16 15:11:31;;;;;;;9.73;6.03;;;13.10;99.90;;;;;;12792993;23;20184;-86
2023/04/16 15:16:34;;;;;;;12.83;10.70;;;13.10;99.90;;;;;;12794809;23;20180;-87
2023/04/16 15:21:37;;;;;;;17.30;12.10;;;13.00;99.90;;;;;;12794102;23;20224;-89
2023/04/16 15:26:39;;;;;;;13.57;10.77;;;12.80;99.90;;;;;;12795037;23;20171;-90
2023/04/16 15:31:42;;;;;;;29.13;14.00;;;12.70;99.90;;;;;;12791636;23;20710;-87
2023/04/16 15:36:44;;;;;;;29.73;15.97;;;12.80;99.90;;;;;;12809410;23;20588;-88
2023/04/16 15:41:47;;;;;;;38.47;23.93;;;12.90;99.90;;;;;;12794689;23;20518;-86
2023/04/16 15:47:02;;;;;;;9.23;5.97;;;12.60;99.90;;;;;;12792660;23;20246;-90
2023/04/16 15:52:05;;;;;;;22.33;15.37;;;12.60;99.90;;;;;;12793377;23;20573;-90
2023/04/16 15:57:08;;;;;;;15.00;9.57;;;12.80;99.90;;;;;;12803683;23;20211;-85
2023/04/16 16:02:10;;;;;;;14.23;10.97;;;12.90;99.90;;;;;;12793791;23;20577;-85
2023/04/16 16:07:18;;;;;;;20.97;15.70;;;13.10;99.90;;;;;;12767068;23;20175;-85
2023/04/16 16:12:21;;;;;;;26.63;17.07;;;12.40;99.90;;;;;;12791942;23;20240;-88
2023/04/16 16:17:24;;;;;;;25.97;19.23;;;12.00;99.90;;;;;;12767436;23;20184;-86
2023/04/16 16:22:27;;;;;;;15.07;9.40;;;11.60;99.90;;;;;;12793677;23;20167;-87
2023/04/16 16:27:30;;;;;;;25.03;15.90;;;11.70;99.90;;;;;;12793453;23;20171;-86
2023/04/16 16:32:32;;;;;;;32.07;20.23;;;11.70;99.90;;;;;;12767579;23;20573;-86
2023/04/16 16:37:35;;;;;;;37.20;22.00;;;11.50;99.90;;;;;;12765729;23;20192;-85
2023/04/16 16:42:37;;;;;;;33.47;22.90;;;11.50;99.90;;;;;;12792448;23;20211;-84
2023/04/16 16:47:40;;;;;;;24.90;17.20;;;11.40;99.90;;;;;;12765949;23;20234;-84
2023/04/16 16:52:43;;;;;;;34.43;22.77;;;11.40;99.90;;;;;;12791990;23;20180;-84
2023/04/16 16:57:46;;;;;;;15.03;10.07;;;11.30;99.90;;;;;;12792575;23;20211;-88
2023/04/16 17:02:49;;;;;;;35.27;22.87;;;11.20;99.90;;;;;;12792901;23;20223;-89
2023/04/16 17:07:54;;;;;;;24.30;13.23;;;11.20;99.90;;;;;;12791355;23;20184;-88
2023/04/16 17:12:56;;;;;;;34.63;21.60;;;11.30;99.90;;;;;;12766226;23;20191;-92
2023/04/16 17:17:59;;;;;;;38.27;23.20;;;11.30;99.90;;;;;;12791908;23;20230;-93
2023/04/16 17:23:02;;;;;;;37.07;23.40;;;11.10;99.90;;;;;;12764456;23;20242;-94
2023/04/16 17:28:04;;;;;;;16.23;8.87;;;11.10;99.90;;;;;;12792502;23;20179;-92
2023/04/16 17:33:07;;;;;;;32.37;22.33;;;11.30;99.90;;;;;;12765563;23;20850;-93
2023/04/16 17:38:10;;;;;;;36.97;23.53;;;11.40;99.90;;;;;;12767645;23;20569;-93
2023/04/16 17:43:12;;;;;;;36.37;23.93;;;10.80;99.90;;;;;;12789615;23;20179;-91
2023/04/16 17:48:15;;;;;;;33.67;19.17;;;10.40;99.90;;;;;;12765588;23;20180;-88
2023/04/16 17:53:18;;;;;;;38.50;23.13;;;10.20;99.90;;;;;;12792133;23;20195;-86
2023/04/16 17:58:20;;;;;;;36.33;22.47;;;10.20;99.90;;;;;;12788904;23;20303;-85
2023/04/16 18:03:23;;;;;;;38.27;24.10;;;10.30;99.90;;;;;;12790777;23;20176;-83
2023/04/16 18:08:26;;;;;;;35.27;22.23;;;10.10;99.90;;;;;;12764700;23;20500;-84
2023/04/16 18:13:29;;;;;;;36.10;23.33;;;9.80;99.90;;;;;;12764617;23;20240;-83
2023/04/16 18:18:31;;;;;;;35.37;22.27;;;9.70;99.90;;;;;;12791679;23;20191;-84
2023/04/16 18:23:33;;;;;;;37.43;23.77;;;9.60;99.90;;;;;;12790702;23;20176;-84
2023/04/16 18:28:36;;;;;;;36.00;21.60;;;9.60;99.90;;;;;;12764456;23;20217;-86
2023/04/16 18:33:38;;;;;;;38.87;24.53;;;9.50;99.90;;;;;;12792286;23;20174;-84
2023/04/16 18:38:57;;;;;;;35.47;22.83;;;9.50;99.90;;;;;;12797934;23;20702;-86
2023/04/16 18:44:03;;;;;;;43.22;29.90;;;9.60;99.90;;;;;;12795992;23;20954;-87
2023/04/16 18:49:06;;;;;;;32.57;20.93;;;10.90;99.90;;;;;;12771799;23;20183;-86
2023/04/16 18:54:08;;;;;;;37.50;23.63;;;12.60;99.90;;;;;;12813374;23;20178;-87
2023/04/16 18:59:11;;;;;;;41.07;26.60;;;13.00;99.90;;;;;;12769065;23;20600;-89
2023/04/16 19:04:14;;;;;;;36.60;25.07;;;13.30;99.90;;;;;;12796844;23;20550;-85
2023/04/16 19:09:16;;;;;;;37.20;23.43;;;13.40;99.90;;;;;;12797551;23;20168;-85
2023/04/16 19:14:19;;;;;;;30.67;21.00;;;;;;;;;;12770241;23;20187;-85
2023/04/16 19:19:21;;;;;;;35.80;22.60;;;13.80;99.90;;;;;;12771760;23;20199;-85
2023/04/16 19:24:24;;;;;;;33.07;22.23;;;13.20;99.90;;;;;;12797100;23;20206;-85
2023/04/16 19:29:26;;;;;;;32.13;21.97;;;13.20;99.90;;;;;;12771468;23;20172;-85
2023/04/16 19:34:29;;;;;;;34.03;23.53;;;13.20;99.90;;;;;;12795557;23;20184;-92
2023/04/16 19:39:32;;;;;;;35.27;23.03;;;12.20;99.90;;;;;;12772251;23;20230;-85
2023/04/16 19:44:34;;;;;;;38.80;25.00;;;10.80;99.90;;;;;;12795997;23;20184;-90
2023/04/16 19:49:37;;;;;;;37.67;22.67;;;10.20;99.90;;;;;;12769834;23;20182;-86
2023/04/16 19:54:40;;;;;;;27.87;16.87;;;9.80;99.90;;;;;;12792824;23;20175;-90
2023/04/16 19:59:43;;;;;;;34.00;21.63;;;10.20;99.90;;;;;;12792210;23;20214;-90
2023/04/16 20:04:47;;;;;;;32.30;18.97;;;10.50;99.90;;;;;;12767726;23;20694;-89
2023/04/16 20:09:49;;;;;;;35.17;21.70;;;10.50;99.90;;;;;;12795321;23;20219;-92
2023/04/16 20:14:52;;;;;;;34.53;21.97;;;10.60;99.90;;;;;;12792578;23;20242;-92
2023/04/16 20:19:59;;;;;;;32.50;20.80;;;10.80;99.90;;;;;;12767001;23;20598;-91
2023/04/16 20:25:02;;;;;;;33.03;20.20;;;10.70;99.90;;;;;;12792716;23;20180;-90
2023/04/16 20:30:05;;;;;;;26.50;17.40;;;10.70;99.90;;;;;;12766755;23;20527;-91
2023/04/16 20:35:10;;;;;;;32.17;20.70;;;10.40;99.90;;;;;;12767262;23;20184;-91
2023/04/16 20:40:13;;;;;;;29.47;19.50;;;10.20;99.90;;;;;;12795003;23;20234;-94
2023/04/16 20:45:16;;;;;;;29.27;18.10;;;10.20;99.90;;;;;;12769994;23;20180;-95
2023/04/16 20:50:20;;;;;;;29.57;19.70;;;10.20;99.90;;;;;;12768222;23;20164;-93
2023/04/16 20:55:23;;;;;;;23.00;15.20;;;10.70;99.90;;;;;;12767907;23;20901;-95
2023/04/16 21:00:25;;;;;;;27.10;17.33;;;10.70;99.90;;;;;;12777991;23;20196;-93
2023/04/16 21:05:28;;;;;;;28.90;18.80;;;10.70;99.90;;;;;;12742645;23;20180;-94
2023/04/16 21:10:31;;;;;;;31.00;19.27;;;10.70;99.90;;;;;;12793368;23;20176;-94
2023/04/16 21:15:34;;;;;;;30.27;19.00;;;10.70;99.90;;;;;;12791505;23;20257;-93
2023/04/16 21:20:37;;;;;;;27.13;16.80;;;10.80;99.90;;;;;;12765221;23;20204;-91
2023/04/16 21:25:40;;;;;;;25.23;16.47;;;10.80;99.90;;;;;;12791371;23;20214;-92
2023/04/16 21:30:42;;;;;;;18.93;14.43;;;10.90;99.90;;;;;;12764248;23;20498;-91
2023/04/16 21:35:50;;;;;;;30.63;19.07;;;10.70;99.90;;;;;;12792223;23;20237;-92
2023/04/16 21:40:54;;;;;;;29.50;20.13;;;10.70;99.90;;;;;;12783450;23;20191;-92
2023/04/16 21:45:57;;;;;;;30.73;19.47;;;10.60;99.90;;;;;;12765305;23;20656;-92
2023/04/16 21:51:05;;;;;;;18.83;12.83;;;10.30;99.90;;;;;;12791049;23;20234;-91
2023/04/16 21:56:08;;;;;;;23.80;15.30;;;10.50;99.90;;;;;;12808947;23;20175;-90
2023/04/16 22:01:11;;;;;;;30.70;19.53;;;10.50;99.90;;;;;;12792274;23;20200;-90
2023/04/16 22:06:15;;;;;;;22.93;16.40;;;10.70;99.90;;;;;;12765073;23;20705;-92
2023/04/16 22:11:18;;;;;;;27.47;17.30;;;10.60;99.90;;;;;;12791429;23;20261;-91
2023/04/16 22:16:20;;;;;;;17.10;12.03;;;10.50;99.90;;;;;;12741166;23;20574;-92
2023/04/16 22:21:23;;;;;;;24.03;15.73;;;10.80;99.90;;;;;;12764610;23;20528;-91
2023/04/16 22:26:26;;;;;;;22.67;15.33;;;10.70;99.90;;;;;;12764210;23;20861;-91
2023/04/16 22:31:29;;;;;;;21.03;14.23;;;10.60;99.90;;;;;;12790058;23;20188;-91
2023/04/16 22:36:31;;;;;;;22.53;14.53;;;10.40;99.90;;;;;;12764327;23;20227;-92
2023/04/16 22:41:35;;;;;;;19.50;13.70;;;10.30;99.90;;;;;;12791835;23;20242;-91
2023/04/16 22:46:37;;;;;;;24.60;13.57;;;10.20;99.90;;;;;;12766097;23;20179;-91
2023/04/16 22:51:40;;;;;;;21.57;14.80;;;9.90;99.90;;;;;;12791941;23;20171;-92
2023/04/16 22:56:42;;;;;;;16.23;11.47;;;9.90;99.90;;;;;;12791116;23;20172;-92
2023/04/16 23:01:45;;;;;;;17.00;11.97;;;9.90;99.90;;;;;;12764493;23;20670;-91
2023/04/16 23:06:48;;;;;;;18.10;13.37;;;9.80;99.90;;;;;;12790326;23;20179;-93
2023/04/16 23:11:50;;;;;;;16.37;12.70;;;9.80;99.90;;;;;;12778827;23;20180;-90
2023/04/16 23:16:53;;;;;;;18.40;13.10;;;9.70;99.90;;;;;;12790317;23;20183;-91
2023/04/16 23:21:55;;;;;;;15.70;12.37;;;9.50;99.90;;;;;;12765648;23;20231;-90
2023/04/16 23:26:58;;;;;;;17.37;12.63;;;9.60;99.90;;;;;;12794075;23;20180;-92
2023/04/16 23:32:01;;;;;;;22.17;13.47;;;9.50;99.90;;;;;;12768104;23;20219;-91
2023/04/16 23:37:03;;;;;;;17.03;12.77;;;9.50;99.90;;;;;;12767950;23;20911;-91
2023/04/16 23:42:06;;;;;;;21.27;14.77;;;9.60;99.90;;;;;;12768885;23;20200;-91
2023/04/16 23:47:08;;;;;;;13.67;11.20;;;9.90;99.90;;;;;;12769220;23;20195;-91
2023/04/16 23:52:11;;;;;;;14.87;11.63;;;9.90;99.90;;;;;;12768007;23;20188;-91
2023/04/16 23:57:14;;;;;;;22.17;13.73;;;9.90;99.90;;;;;;12767540;23;20187;-90
